sensor_id;sensor_type;location;lat;lon;timestamp;pressure;altitude;pressure_sealevel;temperature;humidity
23164;BME280;31429;42.674;23.350;2023-02-11T00:00:52;96455.19;;;-2.00;100.00
23164;BME280;31429;42.674;23.350;2023-02-11T00:01:53;96455.81;;;-1.83;100.00
23164;BME280;31429;42.674;23.350;2023-02-11T00:02:55;96473.47;;;-1.80;100.00
23164;BME280;31429;42.674;23.350;2023-02-11T00:03:57;96476.13;;;-1.98;100.00
23164;BME280;31429;42.674;23.350;2023-02-11T00:04:58;96471.59;;;-1.86;100.00
23164;BME280;31429;42.674;23.350;2023-02-11T00:06:02;96473.00;;;-1.70;100.00
23164;BME280;31429;42.674;23.350;2023-02-11T00:07:03;96469.84;;;-1.64;100.00
23164;BME280;31429;42.674;23.350;2023-02-11T00:08:04;96474.84;;;-1.88;100.00
23164;BME280;31429;42.674;23.350;2023-02-11T00:09:05;96462.59;;;-1.33;100.00
23164;BME280;31429;42.674;23.350;2023-02-11T00:10:06;96466.38;;;-1.22;100.00
23164;BME280;31429;42.674;23.350;2023-02-11T00:11:11;96464.94;;;-1.39;100.00
23164;BME280;31429;42.674;23.350;2023-02-11T00:12:12;96465.78;;;-1.62;100.00
23164;BME280;31429;42.674;23.350;2023-02-11T00:13:14;96465.47;;;-1.70;99.53
23164;BME280;31429;42.674;23.350;2023-02-11T00:14:15;96467.94;;;-1.94;100.00
23164;BME280;31429;42.674;23.350;2023-02-11T00:15:15;96466.69;;;-2.05;100.00
23164;BME280;31429;42.674;23.350;2023-02-11T00:16:19;96463.97;;;-2.11;100.00
23164;BME280;31429;42.674;23.350;2023-02-11T00:17:20;96472.00;;;-1.97;100.00
23164;BME280;31429;42.674;23.350;2023-02-11T00:18:22;96473.09;;;-1.91;100.00
23164;BME280;31429;42.674;23.350;2023-02-11T00:19:22;96473.09;;;-1.91;100.00
23164;BME280;31429;42.674;23.350;2023-02-11T00:20:23;96472.19;;;-1.69;100.00
23164;BME280;31429;42.674;23.350;2023-02-11T00:21:25;96472.50;;;-1.84;99.42
23164;BME280;31429;42.674;23.350;2023-02-11T00:22:26;96471.09;;;-1.99;100.00
23164;BME280;31429;42.674;23.350;2023-02-11T00:23:26;96468.13;;;-2.11;100.00
23164;BME280;31429;42.674;23.350;2023-02-11T00:24:27;96468.00;;;-2.14;100.00
23164;BME280;31429;42.674;23.350;2023-02-11T00:25:29;96464.75;;;-2.12;100.00
23164;BME280;31429;42.674;23.350;2023-02-11T00:26:32;96461.78;;;-2.24;100.00
23164;BME280;31429;42.674;23.350;2023-02-11T00:27:33;96459.78;;;-2.33;100.00
23164;BME280;31429;42.674;23.350;2023-02-11T00:28:33;96468.75;;;-2.38;100.00
23164;BME280;31429;42.674;23.350;2023-02-11T00:29:34;96467.84;;;-2.40;100.00
23164;BME280;31429;42.674;23.350;2023-02-11T00:30:35;96461.22;;;-2.17;100.00
23164;BME280;31429;42.674;23.350;2023-02-11T00:31:36;96466.59;;;-2.08;100.00
23164;BME280;31429;42.674;23.350;2023-02-11T00:32:37;96461.19;;;-1.96;100.00
23164;BME280;31429;42.674;23.350;2023-02-11T00:33:39;96466.75;;;-2.03;100.00
23164;BME280;31429;42.674;23.350;2023-02-11T00:34:40;96467.81;;;-1.75;100.00
23164;BME280;31429;42.674;23.350;2023-02-11T00:35:40;96460.78;;;-1.85;100.00
23164;BME280;31429;42.674;23.350;2023-02-11T00:36:41;96458.53;;;-1.77;100.00
23164;BME280;31429;42.674;23.350;2023-02-11T00:37:42;96458.84;;;-1.92;99.32
23164;BME280;31429;42.674;23.350;2023-02-11T00:38:42;96462.19;;;-2.13;99.10
23164;BME280;31429;42.674;23.350;2023-02-11T00:39:43;96464.63;;;-1.93;100.00
23164;BME280;31429;42.674;23.350;2023-02-11T00:40:44;96459.22;;;-1.81;100.00
23164;BME280;31429;42.674;23.350;2023-02-11T00:41:45;96462.53;;;-1.82;97.42
23164;BME280;31429;42.674;23.350;2023-02-11T00:42:45;96460.72;;;-2.08;97.91
23164;BME280;31429;42.674;23.350;2023-02-11T00:43:46;96452.22;;;-2.12;98.36
23164;BME280;31429;42.674;23.350;2023-02-11T00:44:47;96462.31;;;-2.10;99.08
23164;BME280;31429;42.674;23.350;2023-02-11T00:45:47;96462.31;;;-2.10;100.00
23164;BME280;31429;42.674;23.350;2023-02-11T00:46:48;96455.88;;;-2.04;100.00
23164;BME280;31429;42.674;23.350;2023-02-11T00:47:49;96463.81;;;-1.93;99.95
23164;BME280;31429;42.674;23.350;2023-02-11T00:48:51;96449.19;;;-1.81;99.76
23164;BME280;31429;42.674;23.350;2023-02-11T00:49:54;96457.13;;;-1.70;99.36
23164;BME280;31429;42.674;23.350;2023-02-11T00:50:54;96456.03;;;-1.77;96.93
23164;BME280;31429;42.674;23.350;2023-02-11T00:51:55;96454.34;;;-1.54;97.24
23164;BME280;31429;42.674;23.350;2023-02-11T00:52:56;96455.22;;;-1.54;95.13
23164;BME280;31429;42.674;23.350;2023-02-11T00:53:56;96446.94;;;-1.51;99.22
23164;BME280;31429;42.674;23.350;2023-02-11T00:54:57;96454.88;;;-1.63;93.67
23164;BME280;31429;42.674;23.350;2023-02-11T00:55:58;96446.59;;;-1.60;93.63
23164;BME280;31429;42.674;23.350;2023-02-11T00:56:58;96452.00;;;-1.73;92.11
23164;BME280;31429;42.674;23.350;2023-02-11T00:57:59;96448.75;;;-1.71;95.64
23164;BME280;31429;42.674;23.350;2023-02-11T00:59:00;96445.03;;;-1.81;93.47
23164;BME280;31429;42.674;23.350;2023-02-11T01:00:01;96447.22;;;-1.67;93.57
23164;BME280;31429;42.674;23.350;2023-02-11T01:01:02;96447.44;;;-1.84;93.02
23164;BME280;31429;42.674;23.350;2023-02-11T01:02:03;96453.78;;;-1.93;92.93
23164;BME280;31429;42.674;23.350;2023-02-11T01:03:04;96454.78;;;-1.88;92.70
23164;BME280;31429;42.674;23.350;2023-02-11T01:04:06;96453.78;;;-1.93;94.07
23164;BME280;31429;42.674;23.350;2023-02-11T01:05:07;96453.66;;;-1.96;93.05
23164;BME280;31429;42.674;23.350;2023-02-11T01:06:08;96454.97;;;-2.06;93.71
23164;BME280;31429;42.674;23.350;2023-02-11T01:07:09;96448.69;;;-1.95;93.80
23164;BME280;31429;42.674;23.350;2023-02-11T01:08:09;96447.72;;;-1.76;95.53
23164;BME280;31429;42.674;23.350;2023-02-11T01:09:10;96454.59;;;-1.93;92.88
23164;BME280;31429;42.674;23.350;2023-02-11T01:10:11;96451.09;;;-1.98;93.94
23164;BME280;31429;42.674;23.350;2023-02-11T01:11:13;96434.09;;;-2.27;95.84
23164;BME280;31429;42.674;23.350;2023-02-11T01:12:14;96445.28;;;-1.97;100.00
23164;BME280;31429;42.674;23.350;2023-02-11T01:13:15;96438.84;;;-2.12;97.06
23164;BME280;31429;42.674;23.350;2023-02-11T01:14:15;96445.44;;;-1.92;98.01
23164;BME280;31429;42.674;23.350;2023-02-11T01:15:17;96451.94;;;-2.19;95.49
23164;BME280;31429;42.674;23.350;2023-02-11T01:16:20;96453.84;;;-2.35;97.42
23164;BME280;31429;42.674;23.350;2023-02-11T01:17:21;96449.19;;;-2.48;97.71
23164;BME280;31429;42.674;23.350;2023-02-11T01:18:21;96445.47;;;-2.57;99.05
23164;BME280;31429;42.674;23.350;2023-02-11T01:19:24;96449.94;;;-2.50;100.00
23164;BME280;31429;42.674;23.350;2023-02-11T01:20:26;96451.63;;;-2.49;100.00
23164;BME280;31429;42.674;23.350;2023-02-11T01:21:27;96445.47;;;-2.57;100.00
23164;BME280;31429;42.674;23.350;2023-02-11T01:22:27;96450.19;;;-2.65;99.94
23164;BME280;31429;42.674;23.350;2023-02-11T01:23:28;96450.28;;;-2.62;99.54
23164;BME280;31429;42.674;23.350;2023-02-11T01:24:29;96446.38;;;-2.55;98.92
23164;BME280;31429;42.674;23.350;2023-02-11T01:25:29;96449.28;;;-2.67;99.27
23164;BME280;31429;42.674;23.350;2023-02-11T01:26:30;96444.03;;;-2.73;100.00
23164;BME280;31429;42.674;23.350;2023-02-11T01:27:31;96444.91;;;-2.71;100.00
23164;BME280;31429;42.674;23.350;2023-02-11T01:28:32;96441.16;;;-2.82;100.00
23164;BME280;31429;42.674;23.350;2023-02-11T01:29:32;96441.16;;;-2.82;100.00
23164;BME280;31429;42.674;23.350;2023-02-11T01:30:33;96449.25;;;-2.87;100.00
23164;BME280;31429;42.674;23.350;2023-02-11T01:31:34;96449.66;;;-2.98;100.00
23164;BME280;31429;42.674;23.350;2023-02-11T01:32:34;96436.78;;;-2.86;100.00
23164;BME280;31429;42.674;23.350;2023-02-11T01:33:35;96447.28;;;-2.95;100.00
23164;BME280;31429;42.674;23.350;2023-02-11T01:34:37;96440.16;;;-2.85;100.00
23164;BME280;31429;42.674;23.350;2023-02-11T01:35:39;96444.50;;;-2.81;100.00
23164;BME280;31429;42.674;23.350;2023-02-11T01:36:40;96448.81;;;-2.57;100.00
23164;BME280;31429;42.674;23.350;2023-02-11T01:37:41;96439.34;;;-2.43;100.00
23164;BME280;31429;42.674;23.350;2023-02-11T01:38:41;96441.19;;;-2.39;100.00
23164;BME280;31429;42.674;23.350;2023-02-11T01:39:44;96447.09;;;-2.58;99.80
23164;BME280;31429;42.674;23.350;2023-02-11T01:40:49;96439.72;;;-2.55;98.97
23164;BME280;31429;42.674;23.350;2023-02-11T01:41:50;96435.66;;;-2.53;100.00
23164;BME280;31429;42.674;23.350;2023-02-11T01:42:51;96440.91;;;-2.67;100.00
23164;BME280;31429;42.674;23.350;2023-02-11T01:43:51;96439.97;;;-2.69;100.00
23164;BME280;31429;42.674;23.350;2023-02-11T01:44:53;96442.47;;;-2.69;100.00
23164;BME280;31429;42.674;23.350;2023-02-11T01:46:00;96434.53;;;-2.59;100.00
23164;BME280;31429;42.674;23.350;2023-02-11T01:47:04;96436.31;;;-2.57;100.00
23164;BME280;31429;42.674;23.350;2023-02-11T01:48:06;96432.69;;;-2.63;100.00
23164;BME280;31429;42.674;23.350;2023-02-11T01:49:10;96436.56;;;-2.71;100.00
23164;BME280;31429;42.674;23.350;2023-02-11T01:50:13;96428.03;;;-2.76;100.00
23164;BME280;31429;42.674;23.350;2023-02-11T01:51:17;96437.91;;;-2.59;100.00
23164;BME280;31429;42.674;23.350;2023-02-11T01:52:20;96438.31;;;-2.69;100.00
23164;BME280;31429;42.674;23.350;2023-02-11T01:53:23;96433.63;;;-2.82;100.00
23164;BME280;31429;42.674;23.350;2023-02-11T01:54:45;96439.88;;;-2.93;100.00
23164;BME280;31429;42.674;23.350;2023-02-11T01:56:06;96441.84;;;-3.05;100.00
23164;BME280;31429;42.674;23.350;2023-02-11T01:57:28;96435.03;;;-2.88;100.00
23164;BME280;31429;42.674;23.350;2023-02-11T01:58:31;96430.69;;;-2.72;100.00
23164;BME280;31429;42.674;23.350;2023-02-11T01:59:40;96435.09;;;-2.87;100.00
23164;BME280;31429;42.674;23.350;2023-02-11T02:00:42;96434.66;;;-2.98;100.00
23164;BME280;31429;42.674;23.350;2023-02-11T02:01:46;96433.81;;;-2.98;100.00
23164;BME280;31429;42.674;23.350;2023-02-11T02:02:53;96430.25;;;-3.03;100.00
23164;BME280;31429;42.674;23.350;2023-02-11T02:04:00;96436.59;;;-3.11;100.00
23164;BME280;31429;42.674;23.350;2023-02-11T02:05:08;96428.19;;;-2.51;100.00
23164;BME280;31429;42.674;23.350;2023-02-11T02:06:15;96433.06;;;-2.75;100.00
23164;BME280;31429;42.674;23.350;2023-02-11T02:07:25;96432.91;;;-2.79;100.00
23164;BME280;31429;42.674;23.350;2023-02-11T02:08:31;96433.25;;;-2.91;100.00
23164;BME280;31429;42.674;23.350;2023-02-11T02:09:37;96431.72;;;-3.08;100.00
23164;BME280;31429;42.674;23.350;2023-02-11T02:10:41;96429.91;;;-2.71;100.00
23164;BME280;31429;42.674;23.350;2023-02-11T02:11:42;96443.16;;;-2.73;100.00
23164;BME280;31429;42.674;23.350;2023-02-11T02:12:43;96434.84;;;-2.93;100.00
23164;BME280;31429;42.674;23.350;2023-02-11T02:13:44;96440.25;;;-3.03;100.00
23164;BME280;31429;42.674;23.350;2023-02-11T02:14:45;96438.94;;;-3.16;100.00
23164;BME280;31429;42.674;23.350;2023-02-11T02:15:48;96435.25;;;-3.24;100.00
23164;BME280;31429;42.674;23.350;2023-02-11T02:16:51;96430.06;;;-3.28;100.00
23164;BME280;31429;42.674;23.350;2023-02-11T02:18:01;96432.03;;;-3.21;100.00
23164;BME280;31429;42.674;23.350;2023-02-11T02:19:22;96432.13;;;-3.39;100.00
23164;BME280;31429;42.674;23.350;2023-02-11T02:24:09;96431.94;;;-3.43;100.00
23164;BME280;31429;42.674;23.350;2023-02-11T02:25:31;96430.94;;;-3.47;100.00
23164;BME280;31429;42.674;23.350;2023-02-11T02:27:14;96435.78;;;-3.31;100.00
23164;BME280;31429;42.674;23.350;2023-02-11T02:28:33;96433.75;;;-3.39;100.00
23164;BME280;31429;42.674;23.350;2023-02-11T02:31:31;96426.38;;;-3.36;100.00
23164;BME280;31429;42.674;23.350;2023-02-11T02:32:40;96420.88;;;-3.49;100.00
23164;BME280;31429;42.674;23.350;2023-02-11T02:33:48;96432.31;;;-3.54;100.00
23164;BME280;31429;42.674;23.350;2023-02-11T02:34:57;96440.53;;;-3.56;100.00
23164;BME280;31429;42.674;23.350;2023-02-11T02:36:11;96433.81;;;-3.57;100.00
23164;BME280;31429;42.674;23.350;2023-02-11T02:37:17;96436.31;;;-3.57;100.00
23164;BME280;31429;42.674;23.350;2023-02-11T02:38:24;96432.28;;;-3.55;100.00
23164;BME280;31429;42.674;23.350;2023-02-11T02:39:31;96435.22;;;-3.44;100.00
23164;BME280;31429;42.674;23.350;2023-02-11T02:40:35;96433.34;;;-3.49;100.00
23164;BME280;31429;42.674;23.350;2023-02-11T02:41:40;96433.22;;;-3.52;100.00
23164;BME280;31429;42.674;23.350;2023-02-11T02:42:42;96429.69;;;-3.57;100.00
23164;BME280;31429;42.674;23.350;2023-02-11T02:43:46;96421.88;;;-3.64;100.00
23164;BME280;31429;42.674;23.350;2023-02-11T02:44:48;96427.72;;;-3.44;100.00
23164;BME280;31429;42.674;23.350;2023-02-11T02:45:49;96429.47;;;-3.42;100.00
23164;BME280;31429;42.674;23.350;2023-02-11T02:46:50;96426.91;;;-3.24;100.00
23164;BME280;31429;42.674;23.350;2023-02-11T02:47:52;96426.81;;;-3.26;100.00
23164;BME280;31429;42.674;23.350;2023-02-11T02:48:53;96431.03;;;-3.25;100.00
23164;BME280;31429;42.674;23.350;2023-02-11T02:49:54;96434.22;;;-3.48;100.00
23164;BME280;31429;42.674;23.350;2023-02-11T02:51:05;96431.22;;;-3.20;100.00
23164;BME280;31429;42.674;23.350;2023-02-11T02:52:18;96430.00;;;-3.30;100.00
23164;BME280;31429;42.674;23.350;2023-02-11T02:53:29;96424.63;;;-3.39;100.00
23164;BME280;31429;42.674;23.350;2023-02-11T02:56:21;96428.09;;;-3.55;100.00
23164;BME280;31429;42.674;23.350;2023-02-11T02:57:29;96428.06;;;-3.56;100.00
23164;BME280;31429;42.674;23.350;2023-02-11T02:58:47;96436.53;;;-3.53;100.00
23164;BME280;31429;42.674;23.350;2023-02-11T03:00:04;96419.69;;;-3.57;100.00
23164;BME280;31429;42.674;23.350;2023-02-11T03:01:14;96436.06;;;-3.63;100.00
23164;BME280;31429;42.674;23.350;2023-02-11T03:02:24;96441.47;;;-3.73;100.00
23164;BME280;31429;42.674;23.350;2023-02-11T03:03:34;96437.50;;;-3.68;100.00
23164;BME280;31429;42.674;23.350;2023-02-11T03:04:47;96438.69;;;-3.60;100.00
23164;BME280;31429;42.674;23.350;2023-02-11T03:05:54;96444.69;;;-3.57;100.00
23164;BME280;31429;42.674;23.350;2023-02-11T03:07:03;96435.88;;;-3.68;100.00
23164;BME280;31429;42.674;23.350;2023-02-11T03:08:07;96441.88;;;-3.64;100.00
23164;BME280;31429;42.674;23.350;2023-02-11T03:09:13;96430.88;;;-3.68;100.00
23164;BME280;31429;42.674;23.350;2023-02-11T03:10:18;96442.47;;;-3.70;100.00
23164;BME280;31429;42.674;23.350;2023-02-11T03:11:21;96439.38;;;-3.64;100.00
23164;BME280;31429;42.674;23.350;2023-02-11T03:12:23;96431.88;;;-3.64;100.00
23164;BME280;31429;42.674;23.350;2023-02-11T03:13:28;96432.00;;;-3.61;100.00
23164;BME280;31429;42.674;23.350;2023-02-11T03:14:35;96436.41;;;-3.56;100.00
23164;BME280;31429;42.674;23.350;2023-02-11T03:15:39;96439.91;;;-3.52;100.00
23164;BME280;31429;42.674;23.350;2023-02-11T03:16:42;96437.63;;;-3.46;100.00
23164;BME280;31429;42.674;23.350;2023-02-11T03:17:46;96432.44;;;-3.51;100.00
23164;BME280;31429;42.674;23.350;2023-02-11T03:18:52;96442.91;;;-3.59;100.00
23164;BME280;31429;42.674;23.350;2023-02-11T03:19:57;96439.41;;;-3.63;100.00
23164;BME280;31429;42.674;23.350;2023-02-11T03:20:59;96437.03;;;-3.40;100.00
23164;BME280;31429;42.674;23.350;2023-02-11T03:22:04;96435.13;;;-3.27;100.00
23164;BME280;31429;42.674;23.350;2023-02-11T03:23:10;96434.16;;;-3.50;100.00
23164;BME280;31429;42.674;23.350;2023-02-11T03:24:15;96432.84;;;-3.41;100.00
23164;BME280;31429;42.674;23.350;2023-02-11T03:25:18;96433.81;;;-3.57;100.00
23164;BME280;31429;42.674;23.350;2023-02-11T03:26:22;96434.69;;;-3.57;100.00
23164;BME280;31429;42.674;23.350;2023-02-11T03:27:27;96431.00;;;-3.65;100.00
23164;BME280;31429;42.674;23.350;2023-02-11T03:28:34;96434.75;;;-3.74;100.00
23164;BME280;31429;42.674;23.350;2023-02-11T03:29:41;96435.41;;;-3.78;100.00
23164;BME280;31429;42.674;23.350;2023-02-11T03:30:47;96431.00;;;-3.84;100.00
23164;BME280;31429;42.674;23.350;2023-02-11T03:31:53;96415.75;;;-3.90;100.00
23164;BME280;31429;42.674;23.350;2023-02-11T03:33:00;96416.47;;;-3.92;100.00
23164;BME280;31429;42.674;23.350;2023-02-11T03:34:08;96428.88;;;-3.94;100.00
23164;BME280;31429;42.674;23.350;2023-02-11T03:35:15;96438.09;;;-3.93;100.00
23164;BME280;31429;42.674;23.350;2023-02-11T03:36:21;96434.09;;;-3.89;100.00
23164;BME280;31429;42.674;23.350;2023-02-11T03:37:27;96429.50;;;-3.80;100.00
23164;BME280;31429;42.674;23.350;2023-02-11T03:38:32;96432.91;;;-3.78;100.00
23164;BME280;31429;42.674;23.350;2023-02-11T03:39:38;96429.16;;;-3.88;100.00
23164;BME280;31429;42.674;23.350;2023-02-11T03:40:42;96429.56;;;-3.79;100.00
23164;BME280;31429;42.674;23.350;2023-02-11T03:41:46;96430.75;;;-3.90;100.00
23164;BME280;31429;42.674;23.350;2023-02-11T03:42:51;96439.53;;;-3.98;100.00
23164;BME280;31429;42.674;23.350;2023-02-11T03:43:55;96433.09;;;-3.93;100.00
23164;BME280;31429;42.674;23.350;2023-02-11T03:45:02;96428.84;;;-3.95;100.00
23164;BME280;31429;42.674;23.350;2023-02-11T03:46:05;96431.25;;;-3.97;100.00
23164;BME280;31429;42.674;23.350;2023-02-11T03:47:08;96426.59;;;-3.89;100.00
23164;BME280;31429;42.674;23.350;2023-02-11T03:48:15;96430.78;;;-3.88;100.00
23164;BME280;31429;42.674;23.350;2023-02-11T03:49:20;96428.50;;;-3.84;100.00
23164;BME280;31429;42.674;23.350;2023-02-11T03:51:43;96427.84;;;-3.80;100.00
23164;BME280;31429;42.674;23.350;2023-02-11T03:52:44;96430.47;;;-3.77;100.00
23164;BME280;31429;42.674;23.350;2023-02-11T03:53:47;96429.75;;;-3.74;100.00
23164;BME280;31429;42.674;23.350;2023-02-11T03:54:54;96423.38;;;-3.68;100.00
23164;BME280;31429;42.674;23.350;2023-02-11T03:55:59;96416.63;;;-3.70;100.00
23164;BME280;31429;42.674;23.350;2023-02-11T03:57:02;96430.38;;;-3.61;100.00
23164;BME280;31429;42.674;23.350;2023-02-11T03:58:03;96425.16;;;-3.65;100.00
23164;BME280;31429;42.674;23.350;2023-02-11T03:59:03;96427.19;;;-3.76;100.00
23164;BME280;31429;42.674;23.350;2023-02-11T04:00:05;96432.00;;;-3.80;100.00
23164;BME280;31429;42.674;23.350;2023-02-11T04:01:06;96424.97;;;-3.89;100.00
23164;BME280;31429;42.674;23.350;2023-02-11T04:02:09;96429.97;;;-3.89;100.00
23164;BME280;31429;42.674;23.350;2023-02-11T04:03:11;96428.09;;;-3.93;100.00
23164;BME280;31429;42.674;23.350;2023-02-11T04:04:12;96420.06;;;-4.05;100.00
23164;BME280;31429;42.674;23.350;2023-02-11T04:05:15;96433.56;;;-4.01;100.00
23164;BME280;31429;42.674;23.350;2023-02-11T04:06:16;96427.09;;;-4.16;100.00
23164;BME280;31429;42.674;23.350;2023-02-11T04:07:17;96428.88;;;-4.31;100.00
23164;BME280;31429;42.674;23.350;2023-02-11T04:08:17;96430.63;;;-4.30;100.00
23164;BME280;31429;42.674;23.350;2023-02-11T04:09:18;96431.53;;;-4.28;100.00
23164;BME280;31429;42.674;23.350;2023-02-11T04:10:19;96429.97;;;-4.26;100.00
23164;BME280;31429;42.674;23.350;2023-02-11T04:11:19;96434.56;;;-3.60;100.00
23164;BME280;31429;42.674;23.350;2023-02-11T04:12:20;96426.75;;;-3.86;100.00
23164;BME280;31429;42.674;23.350;2023-02-11T04:13:21;96431.00;;;-4.03;100.00
23164;BME280;31429;42.674;23.350;2023-02-11T04:14:22;96435.00;;;-4.07;100.00
23164;BME280;31429;42.674;23.350;2023-02-11T04:15:22;96416.25;;;-4.16;100.00
23164;BME280;31429;42.674;23.350;2023-02-11T04:16:23;96423.28;;;-4.08;100.00
23164;BME280;31429;42.674;23.350;2023-02-11T04:17:24;96429.28;;;-4.04;100.00
23164;BME280;31429;42.674;23.350;2023-02-11T04:18:24;96430.47;;;-3.96;100.00
23164;BME280;31429;42.674;23.350;2023-02-11T04:19:25;96431.09;;;-4.00;100.00
23164;BME280;31429;42.674;23.350;2023-02-11T04:20:27;96434.56;;;-3.98;100.00
23164;BME280;31429;42.674;23.350;2023-02-11T04:21:28;96429.41;;;-4.01;100.00
23164;BME280;31429;42.674;23.350;2023-02-11T04:22:29;96436.50;;;-3.91;100.00
23164;BME280;31429;42.674;23.350;2023-02-11T04:23:29;96435.28;;;-3.81;100.00
23164;BME280;31429;42.674;23.350;2023-02-11T04:24:30;96430.59;;;-3.74;100.00
23164;BME280;31429;42.674;23.350;2023-02-11T04:25:31;96430.22;;;-3.83;100.00
23164;BME280;31429;42.674;23.350;2023-02-11T04:26:32;96417.00;;;-3.99;100.00
23164;BME280;31429;42.674;23.350;2023-02-11T04:27:33;96431.19;;;-3.98;100.00
23164;BME280;31429;42.674;23.350;2023-02-11T04:28:33;96426.84;;;-4.02;100.00
23164;BME280;31429;42.674;23.350;2023-02-11T04:29:35;96438.88;;;-3.94;100.00
23164;BME280;31429;42.674;23.350;2023-02-11T04:30:35;96419.31;;;-3.85;100.00
23164;BME280;31429;42.674;23.350;2023-02-11T04:31:36;96421.00;;;-4.03;100.00
23164;BME280;31429;42.674;23.350;2023-02-11T04:32:37;96427.38;;;-4.10;100.00
23164;BME280;31429;42.674;23.350;2023-02-11T04:33:37;96428.41;;;-4.04;100.00
23164;BME280;31429;42.674;23.350;2023-02-11T04:34:38;96421.25;;;-3.97;100.00
23164;BME280;31429;42.674;23.350;2023-02-11T04:35:40;96428.25;;;-3.90;100.00
23164;BME280;31429;42.674;23.350;2023-02-11T04:36:41;96420.06;;;-3.86;100.00
23164;BME280;31429;42.674;23.350;2023-02-11T04:37:42;96421.75;;;-3.86;100.00
23164;BME280;31429;42.674;23.350;2023-02-11T04:38:42;96425.44;;;-3.97;100.00
23164;BME280;31429;42.674;23.350;2023-02-11T04:39:43;96413.31;;;-4.08;100.00
23164;BME280;31429;42.674;23.350;2023-02-11T04:40:43;96414.47;;;-4.19;100.00
23164;BME280;31429;42.674;23.350;2023-02-11T04:41:44;96416.78;;;-4.23;100.00
23164;BME280;31429;42.674;23.350;2023-02-11T04:42:45;96414.44;;;-4.38;100.00
23164;BME280;31429;42.674;23.350;2023-02-11T04:43:45;96420.16;;;-4.58;100.00
23164;BME280;31429;42.674;23.350;2023-02-11T04:44:46;96427.56;;;-4.59;100.00
23164;BME280;31429;42.674;23.350;2023-02-11T04:45:46;96412.53;;;-4.43;100.00
23164;BME280;31429;42.674;23.350;2023-02-11T04:46:47;96419.59;;;-4.70;100.00
23164;BME280;31429;42.674;23.350;2023-02-11T04:47:48;96428.50;;;-4.75;100.00
23164;BME280;31429;42.674;23.350;2023-02-11T04:48:48;96425.72;;;-4.81;100.00
23164;BME280;31429;42.674;23.350;2023-02-11T04:49:49;96426.84;;;-4.92;100.00
23164;BME280;31429;42.674;23.350;2023-02-11T04:50:51;96428.44;;;-4.94;100.00
23164;BME280;31429;42.674;23.350;2023-02-11T04:51:52;96428.50;;;-4.75;100.00
23164;BME280;31429;42.674;23.350;2023-02-11T04:52:52;96432.06;;;-4.70;100.00
23164;BME280;31429;42.674;23.350;2023-02-11T04:53:53;96426.16;;;-4.72;100.00
23164;BME280;31429;42.674;23.350;2023-02-11T04:54:53;96432.19;;;-4.67;100.00
23164;BME280;31429;42.674;23.350;2023-02-11T04:55:54;96432.19;;;-4.85;100.00
23164;BME280;31429;42.674;23.350;2023-02-11T04:56:55;96428.47;;;-4.93;100.00
23164;BME280;31429;42.674;23.350;2023-02-11T04:57:55;96423.84;;;-4.85;100.00
23164;BME280;31429;42.674;23.350;2023-02-11T04:58:56;96426.44;;;-4.84;100.00
23164;BME280;31429;42.674;23.350;2023-02-11T04:59:56;96421.03;;;-4.75;100.00
23164;BME280;31429;42.674;23.350;2023-02-11T05:01:04;96427.41;;;-4.98;100.00
23164;BME280;31429;42.674;23.350;2023-02-11T05:02:05;96418.84;;;-5.20;100.00
23164;BME280;31429;42.674;23.350;2023-02-11T05:03:06;96427.31;;;-5.17;100.00
23164;BME280;31429;42.674;23.350;2023-02-11T05:04:06;96421.66;;;-5.31;100.00
23164;BME280;31429;42.674;23.350;2023-02-11T05:05:07;96426.09;;;-5.41;100.00
23164;BME280;31429;42.674;23.350;2023-02-11T05:06:10;96403.38;;;-5.47;100.00
23164;BME280;31429;42.674;23.350;2023-02-11T05:07:10;96422.28;;;-5.35;100.00
23164;BME280;31429;42.674;23.350;2023-02-11T05:08:11;96425.25;;;-5.26;100.00
23164;BME280;31429;42.674;23.350;2023-02-11T05:09:12;96421.31;;;-5.20;100.00
23164;BME280;31429;42.674;23.350;2023-02-11T05:10:13;96416.06;;;-5.09;100.00
23164;BME280;31429;42.674;23.350;2023-02-11T05:11:15;96424.19;;;-5.13;100.00
23164;BME280;31429;42.674;23.350;2023-02-11T05:12:16;96421.06;;;-5.09;100.00
23164;BME280;31429;42.674;23.350;2023-02-11T05:13:17;96415.00;;;-5.14;100.00
23164;BME280;31429;42.674;23.350;2023-02-11T05:14:18;96418.34;;;-5.13;100.00
23164;BME280;31429;42.674;23.350;2023-02-11T05:15:18;96415.22;;;-5.09;100.00
23164;BME280;31429;42.674;23.350;2023-02-11T05:16:19;96416.06;;;-5.09;100.00
23164;BME280;31429;42.674;23.350;2023-02-11T05:17:20;96419.03;;;-5.16;100.00
23164;BME280;31429;42.674;23.350;2023-02-11T05:18:20;96417.91;;;-5.22;100.00
23164;BME280;31429;42.674;23.350;2023-02-11T05:19:21;96417.34;;;-5.17;100.00
23164;BME280;31429;42.674;23.350;2023-02-11T05:20:22;96411.50;;;-5.17;100.00
23164;BME280;31429;42.674;23.350;2023-02-11T05:21:24;96411.34;;;-5.20;100.00
23164;BME280;31429;42.674;23.350;2023-02-11T05:22:24;96412.84;;;-5.24;100.00
23164;BME280;31429;42.674;23.350;2023-02-11T05:23:25;96417.06;;;-5.23;100.00
23164;BME280;31429;42.674;23.350;2023-02-11T05:24:26;96420.41;;;-5.39;100.00
23164;BME280;31429;42.674;23.350;2023-02-11T05:25:26;96420.13;;;-5.45;100.00
23164;BME280;31429;42.674;23.350;2023-02-11T05:26:27;96417.91;;;-5.56;100.00
23164;BME280;31429;42.674;23.350;2023-02-11T05:27:28;96418.22;;;-5.66;100.00
23164;BME280;31429;42.674;23.350;2023-02-11T05:28:28;96410.91;;;-5.79;100.00
23164;BME280;31429;42.674;23.350;2023-02-11T05:29:29;96418.00;;;-5.71;100.00
23164;BME280;31429;42.674;23.350;2023-02-11T05:30:30;96418.34;;;-5.47;100.00
23164;BME280;31429;42.674;23.350;2023-02-11T05:31:30;96416.78;;;-5.45;100.00
23164;BME280;31429;42.674;23.350;2023-02-11T05:32:32;96416.69;;;-5.47;100.00
23164;BME280;31429;42.674;23.350;2023-02-11T05:33:32;96419.34;;;-5.44;100.00
23164;BME280;31429;42.674;23.350;2023-02-11T05:34:33;96412.63;;;-5.62;100.00